sensor_id;sensor_type;location;lat;lon;timestamp;temperature;humidity
24326;DHT22;12448;45.532;5.290;2023-05-18T00:00:44;11.40;90.60
24326;DHT22;12448;45.532;5.290;2023-05-18T00:03:11;11.30;90.70
24326;DHT22;12448;45.532;5.290;2023-05-18T00:05:36;11.40;90.70
24326;DHT22;12448;45.532;5.290;2023-05-18T00:08:05;11.40;90.70
24326;DHT22;12448;45.532;5.290;2023-05-18T00:10:31;11.40;90.70
24326;DHT22;12448;45.532;5.290;2023-05-18T00:13:03;11.40;90.70
24326;DHT22;12448;45.532;5.290;2023-05-18T00:15:30;11.40;90.70
24326;DHT22;12448;45.532;5.290;2023-05-18T00:17:56;11.40;90.70
24326;DHT22;12448;45.532;5.290;2023-05-18T00:20:26;11.30;90.70
24326;DHT22;12448;45.532;5.290;2023-05-18T00:22:55;11.30;90.80
24326;DHT22;12448;45.532;5.290;2023-05-18T00:25:24;11.40;90.90
24326;DHT22;12448;45.532;5.290;2023-05-18T00:27:49;11.90;91.00
24326;DHT22;12448;45.532;5.290;2023-05-18T00:30:16;11.30;90.90
24326;DHT22;12448;45.532;5.290;2023-05-18T00:32:41;11.20;90.90
24326;DHT22;12448;45.532;5.290;2023-05-18T00:35:07;11.20;90.90
24326;DHT22;12448;45.532;5.290;2023-05-18T00:37:33;11.20;91.00
24326;DHT22;12448;45.532;5.290;2023-05-18T00:39:58;11.20;91.00
24326;DHT22;12448;45.532;5.290;2023-05-18T00:42:24;11.20;91.00
24326;DHT22;12448;45.532;5.290;2023-05-18T00:44:50;11.30;91.00
24326;DHT22;12448;45.532;5.290;2023-05-18T00:47:18;11.30;91.00
24326;DHT22;12448;45.532;5.290;2023-05-18T00:49:49;11.20;91.00
24326;DHT22;12448;45.532;5.290;2023-05-18T00:52:15;11.20;91.10
24326;DHT22;12448;45.532;5.290;2023-05-18T00:54:42;11.10;91.20
24326;DHT22;12448;45.532;5.290;2023-05-18T00:57:07;11.50;91.40
24326;DHT22;12448;45.532;5.290;2023-05-18T00:59:33;11.50;91.40
24326;DHT22;12448;45.532;5.290;2023-05-18T01:01:59;11.00;91.20
24326;DHT22;12448;45.532;5.290;2023-05-18T01:04:26;11.10;91.30
24326;DHT22;12448;45.532;5.290;2023-05-18T01:06:54;11.10;91.40
24326;DHT22;12448;45.532;5.290;2023-05-18T01:09:21;11.00;91.50
24326;DHT22;12448;45.532;5.290;2023-05-18T01:11:58;11.00;91.60
24326;DHT22;12448;45.532;5.290;2023-05-18T01:14:40;10.90;91.90
24326;DHT22;12448;45.532;5.290;2023-05-18T01:20:18;10.80;92.30
24326;DHT22;12448;45.532;5.290;2023-05-18T01:22:57;10.80;92.40
24326;DHT22;12448;45.532;5.290;2023-05-18T01:25:34;10.80;92.30
24326;DHT22;12448;45.532;5.290;2023-05-18T01:28:07;10.70;92.30
24326;DHT22;12448;45.532;5.290;2023-05-18T01:30:40;10.60;92.40
24326;DHT22;12448;45.532;5.290;2023-05-18T01:33:07;10.60;92.40
24326;DHT22;12448;45.532;5.290;2023-05-18T01:35:37;11.00;92.50
24326;DHT22;12448;45.532;5.290;2023-05-18T01:38:06;10.60;92.50
24326;DHT22;12448;45.532;5.290;2023-05-18T01:40:36;11.00;92.80
24326;DHT22;12448;45.532;5.290;2023-05-18T01:43:10;10.50;92.80
24326;DHT22;12448;45.532;5.290;2023-05-18T01:45:43;10.50;92.90
24326;DHT22;12448;45.532;5.290;2023-05-18T01:48:11;10.90;93.00
24326;DHT22;12448;45.532;5.290;2023-05-18T01:50:42;10.30;92.90
24326;DHT22;12448;45.532;5.290;2023-05-18T01:53:42;10.40;93.10
24326;DHT22;12448;45.532;5.290;2023-05-18T01:56:09;10.40;93.30
24326;DHT22;12448;45.532;5.290;2023-05-18T01:58:37;10.40;93.30
24326;DHT22;12448;45.532;5.290;2023-05-18T02:01:03;10.50;93.40
24326;DHT22;12448;45.532;5.290;2023-05-18T02:03:42;10.60;93.40
24326;DHT22;12448;45.532;5.290;2023-05-18T02:06:20;10.60;93.30
24326;DHT22;12448;45.532;5.290;2023-05-18T02:09:10;10.70;93.20
24326;DHT22;12448;45.532;5.290;2023-05-18T02:12:03;10.70;93.10
24326;DHT22;12448;45.532;5.290;2023-05-18T02:14:51;10.80;93.10
24326;DHT22;12448;45.532;5.290;2023-05-18T02:17:19;10.80;93.00
24326;DHT22;12448;45.532;5.290;2023-05-18T02:19:46;10.80;92.90
24326;DHT22;12448;45.532;5.290;2023-05-18T02:22:24;11.40;93.10
24326;DHT22;12448;45.532;5.290;2023-05-18T02:25:13;10.90;92.90
24326;DHT22;12448;45.532;5.290;2023-05-18T02:28:03;10.90;92.80
24326;DHT22;12448;45.532;5.290;2023-05-18T02:30:40;10.90;92.80
24326;DHT22;12448;45.532;5.290;2023-05-18T02:33:06;10.90;92.80
24326;DHT22;12448;45.532;5.290;2023-05-18T02:35:35;10.90;92.70
24326;DHT22;12448;45.532;5.290;2023-05-18T02:38:00;10.80;92.70
24326;DHT22;12448;45.532;5.290;2023-05-18T02:40:27;10.50;92.80
24326;DHT22;12448;45.532;5.290;2023-05-18T02:42:53;10.60;93.40
24326;DHT22;12448;45.532;5.290;2023-05-18T02:45:18;10.60;93.40
24326;DHT22;12448;45.532;5.290;2023-05-18T02:47:45;10.60;93.50
24326;DHT22;12448;45.532;5.290;2023-05-18T02:50:19;10.60;93.60
24326;DHT22;12448;45.532;5.290;2023-05-18T02:52:45;10.50;93.60
24326;DHT22;12448;45.532;5.290;2023-05-18T02:55:13;10.50;93.60
24326;DHT22;12448;45.532;5.290;2023-05-18T02:57:39;10.50;93.60
24326;DHT22;12448;45.532;5.290;2023-05-18T03:00:08;10.50;93.70
24326;DHT22;12448;45.532;5.290;2023-05-18T03:02:37;10.50;93.70
24326;DHT22;12448;45.532;5.290;2023-05-18T03:05:03;10.60;93.70
24326;DHT22;12448;45.532;5.290;2023-05-18T03:07:30;10.60;93.60
24326;DHT22;12448;45.532;5.290;2023-05-18T03:09:57;10.60;93.60
24326;DHT22;12448;45.532;5.290;2023-05-18T03:12:23;10.70;93.60
24326;DHT22;12448;45.532;5.290;2023-05-18T03:14:49;11.20;93.60
24326;DHT22;12448;45.532;5.290;2023-05-18T03:17:14;11.40;93.60
24326;DHT22;12448;45.532;5.290;2023-05-18T03:19:40;10.70;93.40
24326;DHT22;12448;45.532;5.290;2023-05-18T03:22:08;10.80;93.80
24326;DHT22;12448;45.532;5.290;2023-05-18T03:24:34;10.80;93.40
24326;DHT22;12448;45.532;5.290;2023-05-18T03:27:14;10.80;93.30
24326;DHT22;12448;45.532;5.290;2023-05-18T03:29:40;10.70;93.20
24326;DHT22;12448;45.532;5.290;2023-05-18T03:32:06;10.60;93.40
24326;DHT22;12448;45.532;5.290;2023-05-18T03:34:32;10.40;93.50
24326;DHT22;12448;45.532;5.290;2023-05-18T03:37:23;10.30;93.70
24326;DHT22;12448;45.532;5.290;2023-05-18T03:39:58;10.30;93.80
24326;DHT22;12448;45.532;5.290;2023-05-18T03:42:24;10.30;93.90
24326;DHT22;12448;45.532;5.290;2023-05-18T03:44:50;10.60;94.00
24326;DHT22;12448;45.532;5.290;2023-05-18T03:47:25;10.50;94.00
24326;DHT22;12448;45.532;5.290;2023-05-18T03:49:53;10.40;93.80
24326;DHT22;12448;45.532;5.290;2023-05-18T03:52:22;10.30;93.90
24326;DHT22;12448;45.532;5.290;2023-05-18T03:54:51;10.50;94.00
24326;DHT22;12448;45.532;5.290;2023-05-18T03:57:17;10.20;94.00
24326;DHT22;12448;45.532;5.290;2023-05-18T03:59:43;10.20;94.00
24326;DHT22;12448;45.532;5.290;2023-05-18T04:02:10;10.70;94.20
24326;DHT22;12448;45.532;5.290;2023-05-18T04:04:36;10.50;94.20
24326;DHT22;12448;45.532;5.290;2023-05-18T04:07:09;10.20;94.10
24326;DHT22;12448;45.532;5.290;2023-05-18T04:09:35;10.10;94.10
24326;DHT22;12448;45.532;5.290;2023-05-18T04:12:09;10.20;94.20
24326;DHT22;12448;45.532;5.290;2023-05-18T04:14:35;10.00;94.30
24326;DHT22;12448;45.532;5.290;2023-05-18T04:17:01;9.80;94.40
24326;DHT22;12448;45.532;5.290;2023-05-18T04:19:38;10.00;94.50
24326;DHT22;12448;45.532;5.290;2023-05-18T04:22:07;10.10;94.60
24326;DHT22;12448;45.532;5.290;2023-05-18T04:24:34;10.50;94.70
24326;DHT22;12448;45.532;5.290;2023-05-18T04:27:00;10.40;94.60
24326;DHT22;12448;45.532;5.290;2023-05-18T04:29:27;10.80;94.80
24326;DHT22;12448;45.532;5.290;2023-05-18T04:31:56;10.50;94.10
24326;DHT22;12448;45.532;5.290;2023-05-18T04:34:28;10.20;94.20
24326;DHT22;12448;45.532;5.290;2023-05-18T04:36:55;10.20;94.20
24326;DHT22;12448;45.532;5.290;2023-05-18T04:39:23;10.90;94.50
24326;DHT22;12448;45.532;5.290;2023-05-18T04:41:56;10.30;94.20
24326;DHT22;12448;45.532;5.290;2023-05-18T04:44:27;10.20;93.80
24326;DHT22;12448;45.532;5.290;2023-05-18T04:46:54;10.10;94.00
24326;DHT22;12448;45.532;5.290;2023-05-18T04:49:21;10.10;94.10
24326;DHT22;12448;45.532;5.290;2023-05-18T04:51:54;10.20;94.10
24326;DHT22;12448;45.532;5.290;2023-05-18T04:54:23;10.20;94.10
24326;DHT22;12448;45.532;5.290;2023-05-18T04:57:07;10.20;94.20
24326;DHT22;12448;45.532;5.290;2023-05-18T04:59:36;10.30;94.30
24326;DHT22;12448;45.532;5.290;2023-05-18T05:02:06;10.30;93.90
24326;DHT22;12448;45.532;5.290;2023-05-18T05:04:32;10.20;93.90
24326;DHT22;12448;45.532;5.290;2023-05-18T05:06:57;10.30;93.80
24326;DHT22;12448;45.532;5.290;2023-05-18T05:09:26;10.30;93.80
24326;DHT22;12448;45.532;5.290;2023-05-18T05:11:52;10.20;93.70
24326;DHT22;12448;45.532;5.290;2023-05-18T05:14:24;10.20;93.50
24326;DHT22;12448;45.532;5.290;2023-05-18T05:16:50;10.40;93.80
24326;DHT22;12448;45.532;5.290;2023-05-18T05:19:24;10.20;93.90
24326;DHT22;12448;45.532;5.290;2023-05-18T05:22:06;10.20;93.60
24326;DHT22;12448;45.532;5.290;2023-05-18T05:24:32;10.00;93.80
24326;DHT22;12448;45.532;5.290;2023-05-18T05:26:58;10.10;94.00
24326;DHT22;12448;45.532;5.290;2023-05-18T05:29:23;10.00;94.10
24326;DHT22;12448;45.532;5.290;2023-05-18T05:31:50;9.90;93.90
24326;DHT22;12448;45.532;5.290;2023-05-18T05:34:16;10.30;94.10
24326;DHT22;12448;45.532;5.290;2023-05-18T05:36:45;10.20;94.30
24326;DHT22;12448;45.532;5.290;2023-05-18T05:39:10;9.80;94.20
24326;DHT22;12448;45.532;5.290;2023-05-18T05:41:38;9.80;94.40
24326;DHT22;12448;45.532;5.290;2023-05-18T05:44:06;10.10;94.20
24326;DHT22;12448;45.532;5.290;2023-05-18T05:46:41;10.10;94.30
24326;DHT22;12448;45.532;5.290;2023-05-18T05:49:10;9.80;94.10
24326;DHT22;12448;45.532;5.290;2023-05-18T05:51:36;9.70;94.00
24326;DHT22;12448;45.532;5.290;2023-05-18T05:54:02;9.70;94.20
24326;DHT22;12448;45.532;5.290;2023-05-18T05:56:28;9.70;94.30
24326;DHT22;12448;45.532;5.290;2023-05-18T05:58:57;10.10;94.50
24326;DHT22;12448;45.532;5.290;2023-05-18T06:01:22;9.90;94.30
24326;DHT22;12448;45.532;5.290;2023-05-18T06:03:48;9.80;94.20
24326;DHT22;12448;45.532;5.290;2023-05-18T06:06:14;9.80;94.50
24326;DHT22;12448;45.532;5.290;2023-05-18T06:08:40;9.80;94.40
24326;DHT22;12448;45.532;5.290;2023-05-18T06:11:05;10.20;94.30
24326;DHT22;12448;45.532;5.290;2023-05-18T06:13:31;9.80;94.20
24326;DHT22;12448;45.532;5.290;2023-05-18T06:15:57;9.80;94.40
24326;DHT22;12448;45.532;5.290;2023-05-18T06:18:23;9.80;94.60
24326;DHT22;12448;45.532;5.290;2023-05-18T06:20:49;9.90;94.50
24326;DHT22;12448;45.532;5.290;2023-05-18T06:23:21;9.80;94.60
24326;DHT22;12448;45.532;5.290;2023-05-18T06:25:53;9.90;94.70
24326;DHT22;12448;45.532;5.290;2023-05-18T06:28:18;10.30;95.00
24326;DHT22;12448;45.532;5.290;2023-05-18T06:30:44;10.20;94.70
24326;DHT22;12448;45.532;5.290;2023-05-18T06:33:10;10.40;94.40
24326;DHT22;12448;45.532;5.290;2023-05-18T06:35:39;10.50;94.10
24326;DHT22;12448;45.532;5.290;2023-05-18T06:38:05;11.00;94.00
24326;DHT22;12448;45.532;5.290;2023-05-18T06:40:31;10.60;93.80
24326;DHT22;12448;45.532;5.290;2023-05-18T06:42:57;10.70;93.60
24326;DHT22;12448;45.532;5.290;2023-05-18T06:45:23;10.60;93.50
24326;DHT22;12448;45.532;5.290;2023-05-18T06:47:48;10.60;93.50
24326;DHT22;12448;45.532;5.290;2023-05-18T06:50:14;10.70;93.50
24326;DHT22;12448;45.532;5.290;2023-05-18T06:52:40;10.50;93.60
24326;DHT22;12448;45.532;5.290;2023-05-18T06:55:06;10.60;93.60
24326;DHT22;12448;45.532;5.290;2023-05-18T06:57:33;10.60;93.80
24326;DHT22;12448;45.532;5.290;2023-05-18T06:59:59;10.70;93.60
24326;DHT22;12448;45.532;5.290;2023-05-18T07:02:25;11.20;93.70
24326;DHT22;12448;45.532;5.290;2023-05-18T07:04:51;10.60;93.40
24326;DHT22;12448;45.532;5.290;2023-05-18T07:07:17;10.60;93.40
24326;DHT22;12448;45.532;5.290;2023-05-18T07:09:42;10.60;93.40
24326;DHT22;12448;45.532;5.290;2023-05-18T07:12:10;10.70;93.40
24326;DHT22;12448;45.532;5.290;2023-05-18T07:14:36;10.80;93.50
24326;DHT22;12448;45.532;5.290;2023-05-18T07:17:06;11.50;93.60
24326;DHT22;12448;45.532;5.290;2023-05-18T07:19:35;10.90;93.30
24326;DHT22;12448;45.532;5.290;2023-05-18T07:22:04;10.90;93.20
24326;DHT22;12448;45.532;5.290;2023-05-18T07:24:48;11.00;93.20
24326;DHT22;12448;45.532;5.290;2023-05-18T07:27:26;11.00;93.30
24326;DHT22;12448;45.532;5.290;2023-05-18T07:30:01;11.10;93.70
24326;DHT22;12448;45.532;5.290;2023-05-18T07:32:29;11.10;93.30
24326;DHT22;12448;45.532;5.290;2023-05-18T07:34:55;11.10;93.00
24326;DHT22;12448;45.532;5.290;2023-05-18T07:37:21;11.20;93.00
24326;DHT22;12448;45.532;5.290;2023-05-18T07:39:47;11.10;92.90
24326;DHT22;12448;45.532;5.290;2023-05-18T07:42:12;11.00;92.90
24326;DHT22;12448;45.532;5.290;2023-05-18T07:44:38;10.80;93.10
24326;DHT22;12448;45.532;5.290;2023-05-18T07:47:04;11.20;93.40
24326;DHT22;12448;45.532;5.290;2023-05-18T07:49:30;10.80;93.30
24326;DHT22;12448;45.532;5.290;2023-05-18T07:51:56;11.00;93.50
24326;DHT22;12448;45.532;5.290;2023-05-18T07:54:21;11.00;93.50
24326;DHT22;12448;45.532;5.290;2023-05-18T07:56:47;10.70;94.00
24326;DHT22;12448;45.532;5.290;2023-05-18T07:59:13;10.50;93.90
24326;DHT22;12448;45.532;5.290;2023-05-18T08:01:44;11.30;94.10
24326;DHT22;12448;45.532;5.290;2023-05-18T08:04:14;10.70;94.20
24326;DHT22;12448;45.532;5.290;2023-05-18T08:06:40;11.20;94.30
24326;DHT22;12448;45.532;5.290;2023-05-18T08:09:05;10.90;94.20
24326;DHT22;12448;45.532;5.290;2023-05-18T08:11:32;11.10;94.10
24326;DHT22;12448;45.532;5.290;2023-05-18T08:13:57;11.70;94.00
24326;DHT22;12448;45.532;5.290;2023-05-18T08:16:23;11.50;93.70
24326;DHT22;12448;45.532;5.290;2023-05-18T08:18:57;11.30;93.70
24326;DHT22;12448;45.532;5.290;2023-05-18T08:21:32;11.20;93.70
24326;DHT22;12448;45.532;5.290;2023-05-18T08:24:05;11.20;94.00
24326;DHT22;12448;45.532;5.290;2023-05-18T08:26:34;11.20;93.80
24326;DHT22;12448;45.532;5.290;2023-05-18T08:29:09;11.30;94.00
24326;DHT22;12448;45.532;5.290;2023-05-18T08:35:05;11.40;94.10
24326;DHT22;12448;45.532;5.290;2023-05-18T08:37:37;11.50;93.90
24326;DHT22;12448;45.532;5.290;2023-05-18T08:40:29;11.50;93.80
24326;DHT22;12448;45.532;5.290;2023-05-18T08:43:06;11.70;93.70
24326;DHT22;12448;45.532;5.290;2023-05-18T08:45:39;11.60;93.80
24326;DHT22;12448;45.532;5.290;2023-05-18T08:48:10;11.60;93.30
24326;DHT22;12448;45.532;5.290;2023-05-18T08:50:37;11.70;93.00
24326;DHT22;12448;45.532;5.290;2023-05-18T08:53:04;11.80;93.30
24326;DHT22;12448;45.532;5.290;2023-05-18T08:55:31;11.70;93.80
24326;DHT22;12448;45.532;5.290;2023-05-18T08:58:02;11.70;93.60
24326;DHT22;12448;45.532;5.290;2023-05-18T09:00:29;11.80;93.40
24326;DHT22;12448;45.532;5.290;2023-05-18T09:02:55;12.00;93.40
24326;DHT22;12448;45.532;5.290;2023-05-18T09:05:30;12.00;93.50
24326;DHT22;12448;45.532;5.290;2023-05-18T09:07:56;12.30;93.10
24326;DHT22;12448;45.532;5.290;2023-05-18T09:10:34;12.30;93.00
24326;DHT22;12448;45.532;5.290;2023-05-18T09:13:01;12.10;92.90
24326;DHT22;12448;45.532;5.290;2023-05-18T09:15:37;12.20;92.90
24326;DHT22;12448;45.532;5.290;2023-05-18T09:18:06;12.10;92.80
24326;DHT22;12448;45.532;5.290;2023-05-18T09:20:32;12.20;92.80
24326;DHT22;12448;45.532;5.290;2023-05-18T09:22:58;12.20;92.80
24326;DHT22;12448;45.532;5.290;2023-05-18T09:25:29;12.20;93.00
24326;DHT22;12448;45.532;5.290;2023-05-18T09:28:08;12.30;93.00
24326;DHT22;12448;45.532;5.290;2023-05-18T09:30:53;12.30;92.90
24326;DHT22;12448;45.532;5.290;2023-05-18T09:33:19;12.40;93.00
24326;DHT22;12448;45.532;5.290;2023-05-18T09:35:51;12.30;92.30
24326;DHT22;12448;45.532;5.290;2023-05-18T09:38:20;12.70;92.60
24326;DHT22;12448;45.532;5.290;2023-05-18T09:40:47;12.10;92.80
24326;DHT22;12448;45.532;5.290;2023-05-18T09:43:15;12.20;93.40
24326;DHT22;12448;45.532;5.290;2023-05-18T09:45:43;12.20;92.70
24326;DHT22;12448;45.532;5.290;2023-05-18T09:48:09;12.20;92.30
24326;DHT22;12448;45.532;5.290;2023-05-18T09:50:35;12.30;92.70
24326;DHT22;12448;45.532;5.290;2023-05-18T09:53:13;12.40;92.50
24326;DHT22;12448;45.532;5.290;2023-05-18T09:56:23;12.50;92.70
24326;DHT22;12448;45.532;5.290;2023-05-18T09:59:29;12.60;92.70
24326;DHT22;12448;45.532;5.290;2023-05-18T10:02:09;12.80;92.20
24326;DHT22;12448;45.532;5.290;2023-05-18T10:04:43;12.70;91.70
24326;DHT22;12448;45.532;5.290;2023-05-18T10:07:24;12.80;91.40
24326;DHT22;12448;45.532;5.290;2023-05-18T10:10:06;12.80;91.40
24326;DHT22;12448;45.532;5.290;2023-05-18T10:13:06;12.90;91.40
24326;DHT22;12448;45.532;5.290;2023-05-18T10:15:44;12.90;91.60
24326;DHT22;12448;45.532;5.290;2023-05-18T10:18:23;12.90;91.30
24326;DHT22;12448;45.532;5.290;2023-05-18T10:21:08;12.90;91.10
24326;DHT22;12448;45.532;5.290;2023-05-18T10:23:47;13.00;91.10
24326;DHT22;12448;45.532;5.290;2023-05-18T10:26:29;13.10;91.20
24326;DHT22;12448;45.532;5.290;2023-05-18T10:29:08;13.20;91.10
24326;DHT22;12448;45.532;5.290;2023-05-18T10:32:10;13.30;91.00
24326;DHT22;12448;45.532;5.290;2023-05-18T10:35:06;13.30;90.70
24326;DHT22;12448;45.532;5.290;2023-05-18T10:38:11;13.50;91.00
24326;DHT22;12448;45.532;5.290;2023-05-18T10:41:02;13.60;90.70
24326;DHT22;12448;45.532;5.290;2023-05-18T10:43:51;13.60;90.40
24326;DHT22;12448;45.532;5.290;2023-05-18T10:46:17;13.60;90.30
24326;DHT22;12448;45.532;5.290;2023-05-18T10:48:46;13.50;90.20
24326;DHT22;12448;45.532;5.290;2023-05-18T10:51:14;13.40;90.50
24326;DHT22;12448;45.532;5.290;2023-05-18T10:53:40;13.40;90.20
24326;DHT22;12448;45.532;5.290;2023-05-18T10:56:08;13.40;89.90
24326;DHT22;12448;45.532;5.290;2023-05-18T10:58:35;13.40;90.90
24326;DHT22;12448;45.532;5.290;2023-05-18T11:01:06;13.60;90.50
24326;DHT22;12448;45.532;5.290;2023-05-18T11:03:33;13.60;90.70
24326;DHT22;12448;45.532;5.290;2023-05-18T11:06:09;13.60;90.10
24326;DHT22;12448;45.532;5.290;2023-05-18T11:08:42;13.70;89.70
24326;DHT22;12448;45.532;5.290;2023-05-18T11:11:08;13.50;88.90
24326;DHT22;12448;45.532;5.290;2023-05-18T11:13:36;13.60;90.00
24326;DHT22;12448;45.532;5.290;2023-05-18T11:16:04;13.70;90.00
24326;DHT22;12448;45.532;5.290;2023-05-18T11:18:38;13.90;90.10
24326;DHT22;12448;45.532;5.290;2023-05-18T11:26:58;13.80;89.20
24326;DHT22;12448;45.532;5.290;2023-05-18T11:29:36;13.90;89.70
24326;DHT22;12448;45.532;5.290;2023-05-18T11:32:25;14.00;89.80
24326;DHT22;12448;45.532;5.290;2023-05-18T11:35:53;14.00;90.00
24326;DHT22;12448;45.532;5.290;2023-05-18T11:41:37;13.90;90.20
24326;DHT22;12448;45.532;5.290;2023-05-18T11:47:28;14.20;90.50
24326;DHT22;12448;45.532;5.290;2023-05-18T11:50:26;14.00;89.50
24326;DHT22;12448;45.532;5.290;2023-05-18T11:53:06;14.50;88.40
24326;DHT22;12448;45.532;5.290;2023-05-18T11:55:37;14.60;87.20
24326;DHT22;12448;45.532;5.290;2023-05-18T11:58:38;14.60;87.30
24326;DHT22;12448;45.532;5.290;2023-05-18T12:01:07;14.60;87.50
24326;DHT22;12448;45.532;5.290;2023-05-18T12:03:41;14.50;87.00
24326;DHT22;12448;45.532;5.290;2023-05-18T12:06:12;14.40;87.90
24326;DHT22;12448;45.532;5.290;2023-05-18T12:09:14;14.50;87.80
24326;DHT22;12448;45.532;5.290;2023-05-18T12:11:41;14.50;88.30
24326;DHT22;12448;45.532;5.290;2023-05-18T12:17:57;14.60;87.90
24326;DHT22;12448;45.532;5.290;2023-05-18T12:20:43;14.80;86.70
24326;DHT22;12448;45.532;5.290;2023-05-18T12:23:32;15.00;86.60
24326;DHT22;12448;45.532;5.290;2023-05-18T12:26:05;15.10;87.10
24326;DHT22;12448;45.532;5.290;2023-05-18T12:28:47;15.00;85.20
24326;DHT22;12448;45.532;5.290;2023-05-18T12:31:33;14.90;84.50
24326;DHT22;12448;45.532;5.290;2023-05-18T12:34:20;14.80;85.70
24326;DHT22;12448;45.532;5.290;2023-05-18T12:40:59;14.90;86.50
24326;DHT22;12448;45.532;5.290;2023-05-18T12:43:56;14.90;86.10
24326;DHT22;12448;45.532;5.290;2023-05-18T12:46:49;14.90;86.10
24326;DHT22;12448;45.532;5.290;2023-05-18T12:49:21;14.90;86.20
24326;DHT22;12448;45.532;5.290;2023-05-18T12:51:47;15.00;86.10
24326;DHT22;12448;45.532;5.290;2023-05-18T12:54:12;15.10;86.50
24326;DHT22;12448;45.532;5.290;2023-05-18T12:56:56;15.20;85.80
24326;DHT22;12448;45.532;5.290;2023-05-18T13:00:00;15.10;85.00
24326;DHT22;12448;45.532;5.290;2023-05-18T13:06:20;15.10;84.60
24326;DHT22;12448;45.532;5.290;2023-05-18T13:20:32;15.10;84.20
24326;DHT22;12448;45.532;5.290;2023-05-18T13:48:29;14.90;86.80
24326;DHT22;12448;45.532;5.290;2023-05-18T13:51:15;14.80;87.00
24326;DHT22;12448;45.532;5.290;2023-05-18T13:54:45;14.60;87.20
24326;DHT22;12448;45.532;5.290;2023-05-18T14:01:56;14.60;87.80
24326;DHT22;12448;45.532;5.290;2023-05-18T14:05:12;14.50;88.40
24326;DHT22;12448;45.532;5.290;2023-05-18T14:08:34;14.50;87.10
24326;DHT22;12448;45.532;5.290;2023-05-18T14:22:36;14.30;88.40
24326;DHT22;12448;45.532;5.290;2023-05-18T14:29:17;14.30;89.60
24326;DHT22;12448;45.532;5.290;2023-05-18T14:33:07;14.30;87.80
24326;DHT22;12448;45.532;5.290;2023-05-18T14:36:00;14.40;86.70
24326;DHT22;12448;45.532;5.290;2023-05-18T14:38:55;14.40;85.10
24326;DHT22;12448;45.532;5.290;2023-05-18T14:56:04;14.30;89.50
24326;DHT22;12448;45.532;5.290;2023-05-18T14:58:45;14.30;89.00
24326;DHT22;12448;45.532;5.290;2023-05-18T15:01:17;14.30;88.30
24326;DHT22;12448;45.532;5.290;2023-05-18T15:11:19;14.40;88.70
24326;DHT22;12448;45.532;5.290;2023-05-18T15:14:39;14.30;89.60
24326;DHT22;12448;45.532;5.290;2023-05-18T15:20:56;14.50;90.10
24326;DHT22;12448;45.532;5.290;2023-05-18T15:23:48;14.50;90.10
24326;DHT22;12448;45.532;5.290;2023-05-18T15:26:18;14.60;89.70
24326;DHT22;12448;45.532;5.290;2023-05-18T15:29:04;14.50;89.80
24326;DHT22;12448;45.532;5.290;2023-05-18T15:31:54;14.60;89.40
24326;DHT22;12448;45.532;5.290;2023-05-18T15:34:50;14.70;90.20
24326;DHT22;12448;45.532;5.290;2023-05-18T15:37:39;14.60;88.80
24326;DHT22;12448;45.532;5.290;2023-05-18T15:43:35;14.70;89.40
24326;DHT22;12448;45.532;5.290;2023-05-18T15:46:14;14.80;89.80
24326;DHT22;12448;45.532;5.290;2023-05-18T15:48:39;14.80;89.00
24326;DHT22;12448;45.532;5.290;2023-05-18T15:51:14;14.80;88.50
24326;DHT22;12448;45.532;5.290;2023-05-18T15:54:01;14.80;89.80
24326;DHT22;12448;45.532;5.290;2023-05-18T15:56:47;14.70;88.80
24326;DHT22;12448;45.532;5.290;2023-05-18T15:59:41;14.80;88.90
24326;DHT22;12448;45.532;5.290;2023-05-18T16:02:36;14.80;89.10
24326;DHT22;12448;45.532;5.290;2023-05-18T16:05:08;14.90;88.20
24326;DHT22;12448;45.532;5.290;2023-05-18T16:07:36;14.90;87.80
24326;DHT22;12448;45.532;5.290;2023-05-18T16:10:05;14.50;87.20
24326;DHT22;12448;45.532;5.290;2023-05-18T16:12:37;15.00;88.00
24326;DHT22;12448;45.532;5.290;2023-05-18T16:15:40;15.00;88.10
24326;DHT22;12448;45.532;5.290;2023-05-18T16:18:12;15.00;88.30
24326;DHT22;12448;45.532;5.290;2023-05-18T16:20:38;15.00;88.50
24326;DHT22;12448;45.532;5.290;2023-05-18T16:23:13;15.00;88.70
24326;DHT22;12448;45.532;5.290;2023-05-18T16:25:42;15.00;88.90
24326;DHT22;12448;45.532;5.290;2023-05-18T16:32:12;15.10;88.70
24326;DHT22;12448;45.532;5.290;2023-05-18T16:34:41;15.10;88.70
24326;DHT22;12448;45.532;5.290;2023-05-18T16:37:10;15.10;88.90
24326;DHT22;12448;45.532;5.290;2023-05-18T16:39:36;15.10;88.80
24326;DHT22;12448;45.532;5.290;2023-05-18T16:42:13;15.20;89.30
24326;DHT22;12448;45.532;5.290;2023-05-18T16:44:42;15.20;88.90
24326;DHT22;12448;45.532;5.290;2023-05-18T16:50:29;15.30;89.00
24326;DHT22;12448;45.532;5.290;2023-05-18T16:52:58;15.20;88.50
24326;DHT22;12448;45.532;5.290;2023-05-18T16:55:40;15.20;89.10
24326;DHT22;12448;45.532;5.290;2023-05-18T16:58:15;15.20;88.90
24326;DHT22;12448;45.532;5.290;2023-05-18T17:00:41;15.20;89.60
24326;DHT22;12448;45.532;5.290;2023-05-18T17:03:07;15.20;89.30
24326;DHT22;12448;45.532;5.290;2023-05-18T17:05:33;15.20;89.20
24326;DHT22;12448;45.532;5.290;2023-05-18T17:07:59;15.20;89.80
24326;DHT22;12448;45.532;5.290;2023-05-18T17:10:25;15.10;89.20
24326;DHT22;12448;45.532;5.290;2023-05-18T17:12:51;15.10;89.30
24326;DHT22;12448;45.532;5.290;2023-05-18T17:15:16;15.20;89.70
24326;DHT22;12448;45.532;5.290;2023-05-18T17:17:42;15.10;89.40
24326;DHT22;12448;45.532;5.290;2023-05-18T17:20:09;15.00;89.40
24326;DHT22;12448;45.532;5.290;2023-05-18T17:22:36;15.00;89.70
24326;DHT22;12448;45.532;5.290;2023-05-18T17:25:06;15.00;89.90
24326;DHT22;12448;45.532;5.290;2023-05-18T17:28:01;15.00;90.10
24326;DHT22;12448;45.532;5.290;2023-05-18T17:31:07;15.00;90.20
24326;DHT22;12448;45.532;5.290;2023-05-18T17:33:39;14.90;90.00
24326;DHT22;12448;45.532;5.290;2023-05-18T17:36:27;14.90;90.30
24326;DHT22;12448;45.532;5.290;2023-05-18T17:39:28;14.80;90.50
24326;DHT22;12448;45.532;5.290;2023-05-18T17:42:13;14.80;90.40
24326;DHT22;12448;45.532;5.290;2023-05-18T17:47:53;14.80;90.30
24326;DHT22;12448;45.532;5.290;2023-05-18T17:53:40;14.60;90.50
24326;DHT22;12448;45.532;5.290;2023-05-18T17:56:18;14.60;90.70
24326;DHT22;12448;45.532;5.290;2023-05-18T17:58:49;14.50;90.90
24326;DHT22;12448;45.532;5.290;2023-05-18T18:01:15;14.50;91.00
24326;DHT22;12448;45.532;5.290;2023-05-18T18:03:55;14.50;91.10
24326;DHT22;12448;45.532;5.290;2023-05-18T18:06:27;14.50;91.20
24326;DHT22;12448;45.532;5.290;2023-05-18T18:08:57;14.60;91.30
24326;DHT22;12448;45.532;5.290;2023-05-18T18:11:52;14.60;91.30
24326;DHT22;12448;45.532;5.290;2023-05-18T18:14:22;14.60;91.30
24326;DHT22;12448;45.532;5.290;2023-05-18T18:20:34;14.60;91.30
24326;DHT22;12448;45.532;5.290;2023-05-18T18:23:01;14.50;91.40
24326;DHT22;12448;45.532;5.290;2023-05-18T18:25:27;14.50;91.50